Time;durP1;ratioP1;P1;durP2;ratioP2;P2;SDS_P1;SDS_P2;PMS_P1;PMS_P2;Temp;Humidity;BMP_temperature;BMP_pressure;BME280_temperature;BME280_humidity;BME280_pressure;Samples;Min_cycle;Max_cycle;Signal;HPM_P1;HPM_P2
2022/12/15 07:01:59;;;;;;;;;;;;;;;7.55;82.42;95466.53;4265968;27;10288;-69
2022/12/15 07:04:04;;;;;;;;;;;;;;;7.86;81.72;95465.03;4266419;27;5594;-69
2022/12/15 07:06:10;;;;;;;;;;;;;;;8.10;81.08;95472.19;4266197;27;5582;-70
2022/12/15 07:08:14;;;;;;;;;;;;;;;8.28;80.41;95479.41;4266101;27;5771;-70
2022/12/15 07:10:17;;;;;;;;;;;;;;;8.40;80.04;95471.69;4265400;27;5589;-71
2022/12/15 07:12:20;;;;;;;;;;;;;;;8.54;79.94;95470.59;4265999;27;5697;-71
2022/12/15 07:14:24;;;;;;;;;;;;;;;8.64;79.42;95491.19;4266315;27;5702;-71
2022/12/15 07:16:27;;;;;;;;;;;;;;;8.72;79.40;95491.75;4266216;27;5666;-71
2022/12/15 07:18:32;;;;;;;;;;;;;;;8.80;78.95;95489.84;4265109;27;5578;-71
2022/12/15 07:20:35;;;;;;;;;;;;;;;8.86;78.69;95491.66;4265838;27;5582;-70
2022/12/15 07:22:38;;;;;;;;;;;;;;;8.89;78.50;95496.50;4266055;27;5664;-71
2022/12/15 07:24:40;;;;;;;;;;;;;;;8.92;78.27;95490.78;4265969;27;5668;-71
2022/12/15 07:26:44;;;;;;;;;;;;;;;8.95;78.11;95485.09;4265525;27;5586;-70
2022/12/15 07:28:51;;;;;;;;;;;;;;;8.99;78.08;95488.91;4265978;27;5669;-71
2022/12/15 07:30:54;;;;;;;;;;;;;;;9.01;77.85;95486.88;4265540;27;5582;-71
2022/12/15 07:32:57;;;;;;;;;;;;;;;9.02;77.62;95488.47;4264991;27;5077;-70
2022/12/15 07:35:04;;;;;;;;;;;;;;;9.04;77.67;95489.06;4265562;27;5678;-70
2022/12/15 07:37:07;;;;;;;;;;;;;;;9.06;77.60;95494.97;4265285;27;6362;-70
2022/12/15 07:39:10;;;;;;;;;;;;;;;9.08;77.58;95490.28;4265452;27;6367;-71
2022/12/15 07:41:14;;;;;;;;;;;;;;;9.10;77.31;95475.03;4265551;27;5597;-71
2022/12/15 07:43:31;;;;;;;;;;;;;;;9.12;77.25;95480.09;4265444;27;5582;-71
2022/12/15 07:45:34;;;;;;;;;;;;;;;9.12;76.76;95465.06;4265348;27;5802;-70
2022/12/15 07:47:37;;;;;;;;;;;;;;;9.10;76.83;95453.13;4265178;27;5673;-71
2022/12/15 07:49:40;;;;;;;;;;;;;;;9.11;76.53;95455.56;4264973;27;5590;-70
2022/12/15 07:51:45;;;;;;;;;;;;;;;9.13;76.45;95450.88;4264928;27;5765;-70
2022/12/15 07:53:49;;;;;;;;;;;;;;;9.14;76.58;95443.75;4265464;27;5702;-70
2022/12/15 07:55:55;;;;;;;;;;;;;;;9.15;76.29;95438.28;4265231;27;5684;-71
2022/12/15 07:58:09;;;;;;;;;;;;;;;9.16;76.30;95441.72;4265502;27;5578;-71
2022/12/15 08:00:14;;;;;;;;;;;;;;;9.14;76.04;95452.47;4264778;27;5625;-70
2022/12/15 08:02:17;;;;;;;;;;;;;;;9.16;75.79;95453.06;4257651;27;5684;-70
2022/12/15 08:04:21;;;;;;;;;;;;;;;9.19;75.81;95449.22;4253980;27;5590;-70
2022/12/15 08:06:24;;;;;;;;;;;;;;;9.21;75.59;95452.44;4253115;27;5582;-70
2022/12/15 08:08:29;;;;;;;;;;;;;;;9.23;75.67;95456.47;4253707;27;5963;-70
2022/12/15 08:10:33;;;;;;;;;;;;;;;9.25;75.60;95438.59;4253647;27;5805;-69
2022/12/15 08:12:35;;;;;;;;;;;;;;;9.27;75.26;95449.72;4253408;27;5583;-70
2022/12/15 08:14:38;;;;;;;;;;;;;;;9.27;75.11;95457.63;4253817;27;5677;-70
2022/12/15 08:16:41;;;;;;;;;;;;;;;9.30;75.27;95473.03;4253422;27;5796;-70
2022/12/15 08:18:44;;;;;;;;;;;;;;;9.30;75.11;95472.22;4253579;27;5711;-70
2022/12/15 08:20:47;;;;;;;;;;;;;;;9.32;75.32;95478.91;4253069;27;5670;-70
2022/12/15 08:22:52;;;;;;;;;;;;;;;9.32;74.76;95494.72;4253246;27;5653;-70
2022/12/15 08:24:56;;;;;;;;;;;;;;;9.34;74.93;95519.03;4236479;28;6329;-70
2022/12/15 08:26:59;;;;;;;;;;;;;;;9.36;75.10;95520.66;4245737;27;5689;-70
2022/12/15 08:29:04;;;;;;;;;;;;;;;9.39;74.57;95525.50;4253570;27;5686;-70
2022/12/15 08:31:27;;;;;;;;;;;;;;;9.42;74.41;95522.44;4234968;28;5601;-70
2022/12/15 08:33:31;;;;;;;;;;;;;;;9.44;74.41;95531.75;4253270;27;5670;-70
2022/12/15 08:35:35;;;;;;;;;;;;;;;9.44;74.52;95523.03;4253256;27;5595;-70
2022/12/15 08:38:01;;;;;;;;;;;;;;;9.46;74.00;95520.97;4252859;27;5685;-70
2022/12/15 08:40:09;;;;;;;;;;;;;;;9.46;74.33;95511.22;4253325;27;5566;-70
2022/12/15 08:42:12;;;;;;;;;;;;;;;9.46;74.30;95510.41;4253417;27;5764;-70
2022/12/15 08:44:16;;;;;;;;;;;;;;;9.46;73.88;95513.88;4253048;27;5674;-70
2022/12/15 08:46:21;;;;;;;;;;;;;;;9.47;74.13;95514.66;4253175;27;6358;-70
2022/12/15 08:48:24;;;;;;;;;;;;;;;9.47;73.67;95506.75;4252716;27;5143;-70
2022/12/15 08:50:26;;;;;;;;;;;;;;;9.48;73.67;95506.53;4252829;27;7723;-70
2022/12/15 08:52:29;;;;;;;;;;;;;;;9.50;73.66;95508.94;4252264;27;5814;-70
2022/12/15 08:54:32;;;;;;;;;;;;;;;9.50;73.52;95504.47;4253198;27;5697;-70
2022/12/15 08:56:36;;;;;;;;;;;;;;;9.54;73.81;95496.97;4251756;27;5736;-70
2022/12/15 08:58:40;;;;;;;;;;;;;;;9.56;73.21;95487.00;4253061;27;5678;-70
2022/12/15 09:00:43;;;;;;;;;;;;;;;9.58;73.28;95475.19;4252548;27;5677;-70
2022/12/15 09:02:45;;;;;;;;;;;;;;;9.58;73.16;95475.19;4252820;27;5689;-70
2022/12/15 09:04:49;;;;;;;;;;;;;;;9.60;73.51;95472.31;4252681;27;5681;-70
2022/12/15 09:06:53;;;;;;;;;;;;;;;9.62;72.99;95470.28;4235436;28;5600;-70
2022/12/15 09:08:57;;;;;;;;;;;;;;;9.63;72.97;95472.72;4235288;28;5616;-70
2022/12/15 09:11:00;;;;;;;;;;;;;;;9.65;73.19;95488.31;4235408;28;5585;-70
2022/12/15 09:13:05;;;;;;;;;;;;;;;9.66;72.97;95492.56;4234741;28;6525;-70
2022/12/15 09:15:10;;;;;;;;;;;;;;;9.67;73.04;95490.75;4245214;27;5682;-70
2022/12/15 09:17:12;;;;;;;;;;;;;;;9.68;72.88;95490.53;4252335;27;5586;-70
2022/12/15 09:19:16;;;;;;;;;;;;;;;9.68;72.97;95485.25;4252432;27;5665;-71
2022/12/15 09:21:21;;;;;;;;;;;;;;;9.70;72.62;95485.03;4252201;27;5703;-70
2022/12/15 09:23:24;;;;;;;;;;;;;;;9.71;72.69;95484.78;4252517;27;5761;-70
2022/12/15 09:25:27;;;;;;;;;;;;;;;9.71;72.55;95487.44;4252415;27;5670;-70
2022/12/15 09:27:30;;;;;;;;;;;;;;;9.73;72.70;95484.56;4252262;27;5669;-70
2022/12/15 09:29:34;;;;;;;;;;;;;;;9.76;72.26;95484.97;4233932;28;5605;-70
2022/12/15 09:31:38;;;;;;;;;;;;;;;9.78;72.59;95480.25;4252230;27;5594;-70
2022/12/15 09:33:44;;;;;;;;;;;;;;;9.81;72.33;95469.25;4252082;27;6478;-70
2022/12/15 09:35:50;;;;;;;;;;;;;;;9.84;72.34;95483.84;4252119;27;5681;-70
2022/12/15 09:37:56;;;;;;;;;;;;;;;9.85;72.12;95477.53;4252079;27;5679;-70
2022/12/15 09:39:59;;;;;;;;;;;;;;;9.86;72.23;95474.69;4252353;27;5601;-70
2022/12/15 09:42:02;;;;;;;;;;;;;;;9.86;71.96;95477.34;4252134;27;5748;-71
2022/12/15 09:44:10;;;;;;;;;;;;;;;9.88;72.01;95477.91;4252125;27;5173;-71
2022/12/15 09:46:21;;;;;;;;;;;;;;;9.90;71.92;95478.50;4251662;27;6903;-71
2022/12/15 09:48:33;;;;;;;;;;;;;;;9.93;71.76;95479.88;4252283;27;5749;-71
2022/12/15 09:50:39;;;;;;;;;;;;;;;9.93;71.61;95483.34;4251989;27;6193;-71
2022/12/15 09:52:48;;;;;;;;;;;;;;;9.95;71.56;95477.03;4251959;27;5831;-71
2022/12/15 09:54:52;;;;;;;;;;;;;;;9.98;71.43;95468.69;4252171;27;5666;-71
2022/12/15 09:56:58;;;;;;;;;;;;;;;9.99;71.43;95478.22;4251763;27;5665;-71
2022/12/15 09:59:06;;;;;;;;;;;;;;;9.98;71.68;95473.97;4252122;27;5566;-70
2022/12/15 10:01:16;;;;;;;;;;;;;;;10.00;71.33;95475.34;4251364;27;5733;-71
2022/12/15 10:03:40;;;;;;;;;;;;;;;10.03;71.49;95471.44;4251635;27;5677;-71
2022/12/15 10:05:59;;;;;;;;;;;;;;;10.04;71.63;95465.13;4251620;27;5798;-71
2022/12/15 10:08:22;;;;;;;;;;;;;;;10.03;71.38;95466.97;4246972;27;5575;-71
2022/12/15 10:10:33;;;;;;;;;;;;;;;10.04;71.14;95463.31;4251598;27;5605;-71
2022/12/15 10:12:39;;;;;;;;;;;;;;;10.04;71.38;95458.03;4251529;27;5693;-71
2022/12/15 10:15:07;;;;;;;;;;;;;;;10.08;71.43;95453.09;4251967;27;5761;-71
2022/12/15 10:17:21;;;;;;;;;;;;;;;10.10;71.13;95454.50;4251860;27;5669;-71
2022/12/15 10:19:37;;;;;;;;;;;;;;;10.10;70.85;95448.41;4251620;27;5598;-70
2022/12/15 10:21:41;;;;;;;;;;;;;;;10.08;71.28;95453.09;4250842;27;6500;-70
2022/12/15 10:23:44;;;;;;;;;;;;;;;10.07;71.24;95443.56;4251635;27;5682;-71
2022/12/15 10:25:58;;;;;;;;;;;;;;;10.06;70.84;95434.84;4251118;27;5591;-71
2022/12/15 10:28:22;;;;;;;;;;;;;;;10.06;71.03;95428.75;4251515;27;5582;-71
2022/12/15 10:30:25;;;;;;;;;;;;;;;10.06;71.03;95428.75;4251563;27;5590;-71
2022/12/15 10:32:37;;;;;;;;;;;;;;;10.05;71.04;95421.88;4251363;27;5586;-71
2022/12/15 10:34:46;;;;;;;;;;;;;;;10.05;70.88;95416.59;4251363;27;5682;-71
2022/12/15 10:36:51;;;;;;;;;;;;;;;10.03;71.05;95416.00;4251144;27;5610;-70
2022/12/15 10:38:54;;;;;;;;;;;;;;;10.06;71.00;95413.72;4251007;27;5586;-71
2022/12/15 10:41:01;;;;;;;;;;;;;;;10.05;70.77;95406.81;4251410;27;6358;-71
2022/12/15 10:43:14;;;;;;;;;;;;;;;10.05;70.93;95400.75;4251520;27;5945;-71
2022/12/15 10:45:34;;;;;;;;;;;;;;;10.05;70.59;95398.09;4251262;27;5666;-72
2022/12/15 10:47:37;;;;;;;;;;;;;;;10.06;70.86;95394.44;4251487;27;5674;-72
2022/12/15 10:49:40;;;;;;;;;;;;;;;10.07;70.98;95388.13;4251231;27;5821;-71
2022/12/15 10:51:50;;;;;;;;;;;;;;;10.07;70.79;95382.84;4251158;27;5590;-75
2022/12/15 10:54:03;;;;;;;;;;;;;;;10.07;70.75;95373.06;4234583;28;5688;-74
2022/12/15 10:56:07;;;;;;;;;;;;;;;10.07;70.45;95381.00;4244598;27;5666;-75
2022/12/15 10:58:17;;;;;;;;;;;;;;;10.10;70.37;95377.13;4250995;27;5573;-74
2022/12/15 11:00:28;;;;;;;;;;;;;;;10.13;70.63;95371.38;4250754;27;5824;-70
2022/12/15 11:02:32;;;;;;;;;;;;;;;10.14;70.28;95357.16;4251310;27;5771;-70
2022/12/15 11:04:36;;;;;;;;;;;;;;;10.15;70.34;95364.03;4250974;27;5590;-71
2022/12/15 11:06:42;;;;;;;;;;;;;;;10.16;70.25;95344.53;4250775;27;5666;-71
2022/12/15 11:08:47;;;;;;;;;;;;;;;10.16;70.10;95350.59;4251119;27;5629;-71
2022/12/15 11:13:16;;;;;;;;;;;;;;;10.19;69.95;95346.72;4234156;28;5608;-71
2022/12/15 11:15:40;;;;;;;;;;;;;;;10.19;70.15;95336.16;4234232;28;5596;-71
2022/12/15 11:17:43;;;;;;;;;;;;;;;10.20;69.89;95328.03;4249615;27;5590;-70
2022/12/15 11:19:55;;;;;;;;;;;;;;;10.22;70.34;95325.19;4251015;27;5585;-71
2022/12/15 11:22:12;;;;;;;;;;;;;;;10.22;70.14;95327.81;4250944;27;6289;-71
2022/12/15 11:24:24;;;;;;;;;;;;;;;10.24;69.97;95323.13;4251191;27;5602;-71
2022/12/15 11:26:48;;;;;;;;;;;;;;;10.24;69.69;95324.94;4251017;27;5673;-71
2022/12/15 11:28:57;;;;;;;;;;;;;;;10.24;69.79;95314.38;4232691;28;5625;-71
2022/12/15 11:31:06;;;;;;;;;;;;;;;10.26;70.01;95307.84;4251193;27;5673;-71
2022/12/15 11:33:12;;;;;;;;;;;;;;;10.28;70.09;95295.22;4251122;27;5694;-71
2022/12/15 11:35:19;;;;;;;;;;;;;;;10.30;69.85;95293.13;4251268;27;5650;-71
2022/12/15 11:37:38;;;;;;;;;;;;;;;10.29;69.73;95280.97;4252462;27;5578;-70
2022/12/15 11:39:55;;;;;;;;;;;;;;;10.27;69.98;95276.94;4234682;28;5708;-71
2022/12/15 11:42:05;;;;;;;;;;;;;;;10.31;69.57;95270.19;4254001;27;5662;-71
2022/12/15 11:44:24;;;;;;;;;;;;;;;10.34;69.83;95277.66;4254238;27;5689;-70
2022/12/15 11:46:30;;;;;;;;;;;;;;;10.36;69.56;95276.38;4254347;27;5666;-71
2022/12/15 11:48:39;;;;;;;;;;;;;;;10.36;69.64;95271.09;4254341;27;5689;-71
2022/12/15 11:50:53;;;;;;;;;;;;;;;10.37;69.41;95275.34;4254072;27;5681;-71
2022/12/15 11:53:18;;;;;;;;;;;;;;;10.38;69.74;95268.22;4237248;27;5657;-71
2022/12/15 11:55:34;;;;;;;;;;;;;;;10.39;69.65;95265.34;4253717;27;5802;-70
2022/12/15 11:58:05;;;;;;;;;;;;;;;10.39;69.50;95261.91;4253899;27;5665;-70
2022/12/15 12:00:11;;;;;;;;;;;;;;;10.40;69.28;95251.13;4247363;27;5690;-70
2022/12/15 12:02:32;;;;;;;;;;;;;;;10.41;69.37;95239.50;4253909;27;5678;-70
2022/12/15 12:04:43;;;;;;;;;;;;;;;10.43;69.23;95232.19;4253670;27;5827;-70
2022/12/15 12:07:03;;;;;;;;;;;;;;;10.45;69.27;95238.03;4253433;27;5768;-70
2022/12/15 12:09:28;;;;;;;;;;;;;;;10.46;69.53;95239.63;4253659;27;5673;-70
2022/12/15 12:11:38;;;;;;;;;;;;;;;10.47;69.36;95230.69;4253758;27;5607;-70
2022/12/15 12:13:53;;;;;;;;;;;;;;;10.47;69.33;95228.03;4253643;27;6407;-70
2022/12/15 12:16:08;;;;;;;;;;;;;;;10.50;69.03;95218.84;4245900;27;5661;-70
2022/12/15 12:18:22;;;;;;;;;;;;;;;10.49;69.25;95222.53;4253772;27;5767;-70
2022/12/15 12:20:29;;;;;;;;;;;;;;;10.47;69.02;95209.53;4253270;27;5749;-70
2022/12/15 12:22:36;;;;;;;;;;;;;;;10.45;69.46;95203.69;4253386;27;5577;-70
2022/12/15 12:24:43;;;;;;;;;;;;;;;10.45;69.23;95201.06;4253681;27;6349;-70
2022/12/15 12:26:57;;;;;;;;;;;;;;;10.45;69.10;95205.53;4253116;27;5589;-70
2022/12/15 12:29:06;;;;;;;;;;;;;;;10.45;69.18;95189.69;4246104;27;5671;-70
2022/12/15 12:31:19;;;;;;;;;;;;;;;10.45;69.02;95190.47;4253024;27;6267;-70
2022/12/15 12:33:31;;;;;;;;;;;;;;;10.46;68.93;95192.09;4253079;27;6338;-70
2022/12/15 12:35:42;;;;;;;;;;;;;;;10.49;69.13;95196.91;4253354;27;5575;-70
2022/12/15 12:37:51;;;;;;;;;;;;;;;10.50;68.87;95198.50;4252867;27;5746;-70
2022/12/15 12:40:00;;;;;;;;;;;;;;;10.50;68.68;95206.44;4253251;27;5757;-70
2022/12/15 12:42:12;;;;;;;;;;;;;;;10.49;68.95;95204.81;4253095;27;5073;-71
2022/12/15 12:44:26;;;;;;;;;;;;;;;10.49;68.72;95204.81;4252846;27;5681;-70
2022/12/15 12:46:33;;;;;;;;;;;;;;;10.48;68.68;95192.66;4253128;27;5744;-70
2022/12/15 12:48:39;;;;;;;;;;;;;;;10.49;68.87;95186.34;4252878;27;5677;-70
2022/12/15 12:50:42;;;;;;;;;;;;;;;10.52;68.98;95192.19;4252859;27;5779;-70
2022/12/15 12:52:49;;;;;;;;;;;;;;;10.52;68.99;95184.25;4252742;27;5581;-70
2022/12/15 12:54:57;;;;;;;;;;;;;;;10.48;68.91;95184.72;4252800;27;5725;-70
2022/12/15 12:57:01;;;;;;;;;;;;;;;10.49;68.79;95185.53;4236007;28;5713;-69
2022/12/15 12:59:37;;;;;;;;;;;;;;;10.49;69.02;95188.16;4245823;27;5682;-70
2022/12/15 13:01:40;;;;;;;;;;;;;;;10.51;68.80;95183.47;4252545;27;5826;-70
2022/12/15 13:03:43;;;;;;;;;;;;;;;10.51;68.60;95183.47;4252786;27;5679;-70
2022/12/15 13:05:48;;;;;;;;;;;;;;;10.52;68.78;95176.34;4252987;27;5843;-70
2022/12/15 13:07:55;;;;;;;;;;;;;;;10.52;68.95;95169.22;4252458;27;5666;-70
2022/12/15 13:10:05;;;;;;;;;;;;;;;10.51;68.92;95162.31;4235783;28;5663;-70
2022/12/15 13:12:36;;;;;;;;;;;;;;;10.52;68.92;95165.75;4235481;28;5701;-70
2022/12/15 13:14:58;;;;;;;;;;;;;;;10.53;68.59;95157.59;4235653;28;5660;-70
2022/12/15 13:17:05;;;;;;;;;;;;;;;10.53;68.67;95160.25;4218759;28;5632;-70
2022/12/15 13:19:57;;;;;;;;;;;;;;;10.54;68.77;95150.50;4252341;27;5693;-70
2022/12/15 13:22:10;;;;;;;;;;;;;;;10.54;68.70;95150.50;4235354;27;5590;-72
2022/12/15 13:24:25;;;;;;;;;;;;;;;10.55;68.61;95160.84;4252607;27;5764;-71
2022/12/15 13:26:31;;;;;;;;;;;;;;;10.54;68.57;95161.06;4252717;27;5670;-71
2022/12/15 13:28:50;;;;;;;;;;;;;;;10.54;68.79;95166.34;4252573;27;5582;-71
2022/12/15 13:31:30;;;;;;;;;;;;;;;10.53;68.66;95160.25;4251725;27;5705;-71
2022/12/15 13:33:34;;;;;;;;;;;;;;;10.52;68.54;95171.84;4252419;27;5732;-71
2022/12/15 13:35:42;;;;;;;;;;;;;;;10.52;68.30;95157.84;4252098;27;5681;-70
2022/12/15 13:37:50;;;;;;;;;;;;;;;10.52;68.28;95157.84;4251989;27;5690;-71
2022/12/15 13:39:58;;;;;;;;;;;;;;;10.50;68.45;95153.59;4252494;27;5666;-69
2022/12/15 13:42:28;;;;;;;;;;;;;;;10.51;68.48;95149.09;4251972;27;5685;-70
2022/12/15 13:44:40;;;;;;;;;;;;;;;10.49;68.21;95145.91;4252023;27;5653;-70
2022/12/15 13:46:47;;;;;;;;;;;;;;;10.46;68.36;95136.59;4251856;27;5677;-71
2022/12/15 13:48:55;;;;;;;;;;;;;;;10.47;68.24;95140.06;4252043;27;5833;-70
2022/12/15 13:51:05;;;;;;;;;;;;;;;10.45;68.30;95142.94;4251971;27;5662;-71
2022/12/15 13:53:17;;;;;;;;;;;;;;;10.43;68.28;95142.38;4251849;27;5745;-70
2022/12/15 13:55:24;;;;;;;;;;;;;;;10.43;68.48;95145.00;4252261;27;5555;-71
2022/12/15 13:57:33;;;;;;;;;;;;;;;10.44;68.35;95140.53;4251872;27;5827;-70
2022/12/15 13:59:42;;;;;;;;;;;;;;;10.43;68.10;95129.16;4251150;27;5673;-69
2022/12/15 14:01:51;;;;;;;;;;;;;;;10.44;68.11;95125.47;4251356;27;5887;-71
2022/12/15 14:04:04;;;;;;;;;;;;;;;10.45;68.39;95132.38;4234971;27;5820;-71
2022/12/15 14:06:14;;;;;;;;;;;;;;;10.44;68.09;95130.75;4251446;27;7724;-71
2022/12/15 14:08:18;;;;;;;;;;;;;;;10.43;68.11;95128.34;4251318;27;5590;-70
2022/12/15 14:10:24;;;;;;;;;;;;;;;10.42;67.93;95121.47;4251832;27;5586;-70
2022/12/15 14:12:27;;;;;;;;;;;;;;;10.43;68.20;95123.88;4251995;27;5705;-70
2022/12/15 14:14:33;;;;;;;;;;;;;;;10.42;68.12;95118.81;4251820;27;5673;-70
2022/12/15 14:16:36;;;;;;;;;;;;;;;10.42;67.98;95124.91;4251668;27;5769;-70
2022/12/15 14:18:43;;;;;;;;;;;;;;;10.40;67.86;95124.31;4251435;27;5588;-70
2022/12/15 14:20:47;;;;;;;;;;;;;;;10.38;68.01;95118.47;4251253;27;5757;-70
2022/12/15 14:22:53;;;;;;;;;;;;;;;10.37;67.97;95130.06;4251382;27;5606;-70
2022/12/15 14:25:12;;;;;;;;;;;;;;;10.38;67.67;95134.31;4234625;27;6306;-70
2022/12/15 14:27:22;;;;;;;;;;;;;;;10.37;67.84;95132.72;4251497;27;5626;-70
2022/12/15 14:29:26;;;;;;;;;;;;;;;10.34;67.49;95129.75;4251514;27;5689;-70
2022/12/15 14:31:30;;;;;;;;;;;;;;;10.35;67.87;95126.84;4251506;27;5621;-70
2022/12/15 14:33:36;;;;;;;;;;;;;;;10.34;67.72;95130.53;4251253;27;5662;-70
2022/12/15 14:35:44;;;;;;;;;;;;;;;10.35;67.45;95145.34;4251042;27;5909;-71
2022/12/15 14:37:53;;;;;;;;;;;;;;;10.35;67.23;95142.72;4251167;27;5591;-71
2022/12/15 14:39:56;;;;;;;;;;;;;;;10.36;67.45;95152.25;4251421;27;5916;-70
2022/12/15 14:42:01;;;;;;;;;;;;;;;10.35;67.19;95141.91;4251063;27;5692;-70
2022/12/15 14:44:08;;;;;;;;;;;;;;;10.34;67.13;95143.75;4251355;27;5759;-70
2022/12/15 14:46:31;;;;;;;;;;;;;;;10.32;67.10;95153.75;4251216;27;5789;-70
2022/12/15 14:48:38;;;;;;;;;;;;;;;10.28;66.95;95152.59;4251442;27;5658;-71
2022/12/15 14:50:48;;;;;;;;;;;;;;;10.26;66.78;95156.50;4251068;27;5686;-70
2022/12/15 14:52:57;;;;;;;;;;;;;;;10.24;66.87;95161.22;4250811;27;5835;-70
2022/12/15 14:55:02;;;;;;;;;;;;;;;10.24;67.15;95169.13;4250986;27;5674;-71
2022/12/15 14:57:14;;;;;;;;;;;;;;;10.22;67.05;95169.38;4251309;27;5807;-70
2022/12/15 14:59:19;;;;;;;;;;;;;;;10.22;67.03;95174.66;4251122;27;5680;-70
2022/12/15 15:01:29;;;;;;;;;;;;;;;10.23;66.65;95170.16;4232672;28;5152;-70
2022/12/15 15:03:38;;;;;;;;;;;;;;;10.24;66.68;95175.22;4234067;28;5654;-70
2022/12/15 15:05:44;;;;;;;;;;;;;;;10.23;66.55;95180.72;4233030;28;6290;-71
2022/12/15 15:07:48;;;;;;;;;;;;;;;10.21;66.58;95178.28;4233995;27;5733;-70
2022/12/15 15:09:52;;;;;;;;;;;;;;;10.18;66.64;95170.81;4233829;28;5783;-70
2022/12/15 15:11:59;;;;;;;;;;;;;;;10.17;66.46;95174.47;4226015;27;5683;-70
2022/12/15 15:14:08;;;;;;;;;;;;;;;10.16;66.52;95172.88;4227325;28;5664;-71
2022/12/15 15:16:16;;;;;;;;;;;;;;;10.16;66.33;95172.88;4231321;28;5642;-71
2022/12/15 15:18:24;;;;;;;;;;;;;;;10.18;66.39;95174.25;4233395;28;5659;-70
2022/12/15 15:20:51;;;;;;;;;;;;;;;10.20;66.47;95177.50;4220173;28;5663;-70
2022/12/15 15:23:16;;;;;;;;;;;;;;;10.23;66.37;95165.69;4218163;28;5754;-70
2022/12/15 15:25:35;;;;;;;;;;;;;;;10.23;66.08;95160.41;4233530;28;5679;-70
2022/12/15 15:27:42;;;;;;;;;;;;;;;10.23;66.36;95159.59;4228453;28;5777;-70
2022/12/15 15:29:44;;;;;;;;;;;;;;;10.25;66.23;95154.88;4236143;28;5634;-70
2022/12/15 15:31:52;;;;;;;;;;;;;;;10.26;66.21;95151.22;4229381;28;5663;-70
2022/12/15 15:33:57;;;;;;;;;;;;;;;10.27;66.23;95143.06;4217954;28;5677;-70
2022/12/15 15:36:01;;;;;;;;;;;;;;;10.26;66.29;95136.16;4211104;28;5758;-70
2022/12/15 15:38:17;;;;;;;;;;;;;;;10.27;66.08;95129.84;4202526;28;5689;-70
2022/12/15 15:40:20;;;;;;;;;;;;;;;10.27;66.25;95140.41;4203164;28;5696;-70
2022/12/15 15:42:23;;;;;;;;;;;;;;;10.27;66.30;95129.84;4227996;28;5737;-69
2022/12/15 15:44:34;;;;;;;;;;;;;;;10.27;66.36;95124.56;4227332;27;5667;-71
2022/12/15 15:46:43;;;;;;;;;;;;;;;10.25;66.43;95116.06;4215747;28;5760;-72
2022/12/15 15:48:49;;;;;;;;;;;;;;;10.27;66.19;95124.56;4214635;28;5774;-71
2022/12/15 15:50:52;;;;;;;;;;;;;;;10.26;66.27;95117.69;4223074;28;5658;-71
2022/12/15 15:52:55;;;;;;;;;;;;;;;10.26;66.30;95111.59;4217998;28;5637;-70
2022/12/15 15:55:00;;;;;;;;;;;;;;;10.24;66.40;95114.47;4215760;28;5807;-71
2022/12/15 15:57:03;;;;;;;;;;;;;;;10.24;66.25;95101.28;4217269;28;5675;-71
2022/12/15 15:59:12;;;;;;;;;;;;;;;10.26;66.03;95098.38;4214598;28;5856;-70
2022/12/15 16:01:14;;;;;;;;;;;;;;;10.24;66.50;95088.06;4242494;27;5661;-72
2022/12/15 16:03:17;;;;;;;;;;;;;;;10.23;66.59;95086.47;4242456;27;5816;-70
2022/12/15 16:05:20;;;;;;;;;;;;;;;10.23;66.60;95088.31;4247953;27;5761;-70
2022/12/15 16:07:26;;;;;;;;;;;;;;;10.21;66.23;95083.22;4229493;27;5688;-70
2022/12/15 16:09:34;;;;;;;;;;;;;;;10.20;66.37;95081.63;4247213;27;5670;-71
2022/12/15 16:11:39;;;;;;;;;;;;;;;10.20;66.60;95097.47;4266970;27;5583;-71
2022/12/15 16:13:42;;;;;;;;;;;;;;;10.20;66.66;95086.91;4242065;27;5731;-71
2022/12/15 16:15:45;;;;;;;;;;;;;;;10.20;66.82;95092.19;4246967;27;5672;-71
2022/12/15 16:17:48;;;;;;;;;;;;;;;10.19;66.39;95096.66;4245669;27;5669;-72
2022/12/15 16:19:51;;;;;;;;;;;;;;;10.20;66.69;95090.34;4243060;27;5655;-71
2022/12/15 16:21:55;;;;;;;;;;;;;;;10.22;66.65;95089.34;4244583;27;5847;-72
2022/12/15 16:24:02;;;;;;;;;;;;;;;10.22;66.63;95100.69;4250207;27;5586;-71
2022/12/15 16:26:05;;;;;;;;;;;;;;;10.22;66.60;95092.78;4251984;27;5752;-71
2022/12/15 16:28:15;;;;;;;;;;;;;;;10.24;66.76;95103.09;4252671;27;5686;-71
2022/12/15 16:30:21;;;;;;;;;;;;;;;10.22;66.84;95107.81;4253208;27;5690;-71
2022/12/15 16:32:25;;;;;;;;;;;;;;;10.19;66.67;95101.13;4253134;27;5786;-71
2022/12/15 16:34:28;;;;;;;;;;;;;;;10.18;66.56;95105.59;4253288;27;5602;-72
2022/12/15 16:36:32;;;;;;;;;;;;;;;10.17;66.37;95105.81;4252731;27;5612;-71
2022/12/15 16:38:37;;;;;;;;;;;;;;;10.16;66.91;95101.59;4234711;27;5613;-72
2022/12/15 16:40:45;;;;;;;;;;;;;;;10.14;66.76;95101.00;4251024;27;5598;-71
2022/12/15 16:42:58;;;;;;;;;;;;;;;10.12;66.67;95106.53;4240664;27;6400;-71
2022/12/15 16:45:12;;;;;;;;;;;;;;;10.12;66.54;95098.59;4243571;27;5602;-77
2022/12/15 16:47:15;;;;;;;;;;;;;;;10.12;66.49;95101.25;4258327;27;5713;-76
2022/12/15 16:49:19;;;;;;;;;;;;;;;10.13;66.83;95102.06;4236638;27;5731;-70
2022/12/15 16:51:34;;;;;;;;;;;;;;;10.12;66.84;95105.72;4241721;27;5705;-75
2022/12/15 16:53:41;;;;;;;;;;;;;;;10.10;66.97;95103.31;4254134;27;5555;-78
2022/12/15 16:55:44;;;;;;;;;;;;;;;10.10;66.77;95111.25;4238234;27;5635;-75
2022/12/15 16:57:50;;;;;;;;;;;;;;;10.10;66.60;95110.44;4247184;27;5728;-78
2022/12/15 16:59:54;;;;;;;;;;;;;;;10.07;66.85;95106.41;4245524;27;5117;-71
2022/12/15 17:02:21;;;;;;;;;;;;;;;10.08;66.74;95109.84;4209804;28;8432;-79
2022/12/15 17:04:29;;;;;;;;;;;;;;;10.07;67.07;95108.25;4211216;28;5792;-78
2022/12/15 17:06:35;;;;;;;;;;;;;;;10.07;66.91;95110.88;4219674;28;5663;-76
2022/12/15 17:08:43;;;;;;;;;;;;;;;10.07;66.78;95108.25;4213195;28;5716;-77
2022/12/15 17:10:49;;;;;;;;;;;;;;;10.09;66.71;95112.28;4220306;28;5610;-70
2022/12/15 17:12:54;;;;;;;;;;;;;;;10.07;66.77;95106.41;4224105;28;5089;-72
2022/12/15 17:14:57;;;;;;;;;;;;;;;10.09;66.91;95107.00;4205499;28;5739;-74
2022/12/15 17:17:03;;;;;;;;;;;;;;;10.09;66.67;95106.19;4214531;28;5735;-73
2022/12/15 17:19:07;;;;;;;;;;;;;;;10.09;66.61;95106.19;4213424;28;5638;-75
2022/12/15 17:21:14;;;;;;;;;;;;;;;10.10;66.57;95103.31;4213672;28;6913;-71
2022/12/15 17:23:19;;;;;;;;;;;;;;;10.08;66.57;95104.56;4206227;28;5843;-83
2022/12/15 17:25:25;;;;;;;;;;;;;;;10.08;67.06;95096.66;4212062;28;5664;-74
2022/12/15 17:27:54;;;;;;;;;;;;;;;10.08;66.77;95099.28;4202059;28;5807;-72
2022/12/15 17:29:59;;;;;;;;;;;;;;;10.07;66.90;95102.97;4214618;28;7010;-73
2022/12/15 17:32:02;;;;;;;;;;;;;;;10.06;66.74;95098.72;4220557;28;7841;-77
2022/12/15 17:34:26;;;;;;;;;;;;;;;10.05;67.10;95094.47;4208458;28;5768;-75
2022/12/15 17:36:29;;;;;;;;;;;;;;;10.05;66.83;95094.47;4214009;28;5663;-72
2022/12/15 17:38:32;;;;;;;;;;;;;;;10.05;67.03;95091.84;4214684;28;5843;-78
2022/12/15 17:40:35;;;;;;;;;;;;;;;10.05;66.98;95089.19;4217751;28;5705;-72
2022/12/15 17:42:37;;;;;;;;;;;;;;;10.06;67.14;95101.34;4216640;28;5850;-75
2022/12/15 17:44:40;;;;;;;;;;;;;;;10.04;66.86;95095.50;4211714;28;5745;-73
2022/12/15 17:46:44;;;;;;;;;;;;;;;10.04;66.82;95098.16;4210455;28;5768;-76
2022/12/15 17:48:47;;;;;;;;;;;;;;;10.04;67.08;95108.72;4212576;28;5807;-84
2022/12/15 17:50:53;;;;;;;;;;;;;;;10.03;66.90;95109.75;4203802;28;5741;-72
2022/12/15 17:52:56;;;;;;;;;;;;;;;10.03;67.21;95115.03;4208789;28;5691;-74
2022/12/15 17:54:58;;;;;;;;;;;;;;;10.03;67.22;95115.03;4204111;28;5794;-74
2022/12/15 17:57:01;;;;;;;;;;;;;;;10.02;66.98;95121.34;4207040;28;5851;-73
2022/12/15 17:59:11;;;;;;;;;;;;;;;10.03;67.22;95122.94;4212720;28;5857;-83
2022/12/15 18:01:14;;;;;;;;;;;;;;;10.03;66.85;95117.66;4237137;27;5725;-76
2022/12/15 18:03:17;;;;;;;;;;;;;;;10.01;66.73;95120.53;4241856;27;5777;-73
2022/12/15 18:05:21;;;;;;;;;;;;;;;10.00;66.68;95124.22;4239730;27;7273;-73
2022/12/15 18:07:26;;;;;;;;;;;;;;;10.01;66.72;95123.19;4242385;27;5594;-73
2022/12/15 18:09:29;;;;;;;;;;;;;;;10.01;67.08;95119.75;4236325;27;5597;-78
2022/12/15 18:11:32;;;;;;;;;;;;;;;9.99;66.82;95117.34;4243364;27;5727;-79
2022/12/15 18:13:35;;;;;;;;;;;;;;;10.01;67.12;95119.75;4246832;27;5866;-78
2022/12/15 18:15:38;;;;;;;;;;;;;;;10.01;67.04;95125.03;4242021;27;5776;-82
2022/12/15 18:17:41;;;;;;;;;;;;;;;9.99;67.07;95121.81;4235182;27;5808;-78
2022/12/15 18:19:44;;;;;;;;;;;;;;;9.99;66.80;95135.00;4240492;27;5680;-79
2022/12/15 18:21:47;;;;;;;;;;;;;;;10.00;67.01;95123.41;4240067;27;5850;-80